sensor_id;sensor_type;location;lat;lon;timestamp;pressure;altitude;pressure_sealevel;temperature
62845;BMP280;48929;47.910;20.390;2022-07-22T00:00:17;99333.50;;;19.94
62845;BMP280;48929;47.910;20.390;2022-07-22T00:02:46;99324.25;;;19.84
62845;BMP280;48929;47.910;20.390;2022-07-22T00:05:15;99323.28;;;19.76
62845;BMP280;48929;47.910;20.390;2022-07-22T00:07:44;99327.84;;;19.70
62845;BMP280;48929;47.910;20.390;2022-07-22T00:10:13;99328.78;;;19.67
62845;BMP280;48929;47.910;20.390;2022-07-22T00:12:41;99325.34;;;19.61
62845;BMP280;48929;47.910;20.390;2022-07-22T00:15:11;99326.28;;;19.58
62845;BMP280;48929;47.910;20.390;2022-07-22T00:17:41;99328.72;;;19.56
62845;BMP280;48929;47.910;20.390;2022-07-22T00:20:10;99328.47;;;19.54
62845;BMP280;48929;47.910;20.390;2022-07-22T00:22:39;99326.50;;;19.54
62845;BMP280;48929;47.910;20.390;2022-07-22T00:25:08;99324.06;;;19.51
62845;BMP280;48929;47.910;20.390;2022-07-22T00:27:37;99325.03;;;19.48
62845;BMP280;48929;47.910;20.390;2022-07-22T00:30:07;99329.34;;;19.40
62845;BMP280;48929;47.910;20.390;2022-07-22T00:32:37;99334.09;;;19.36
62845;BMP280;48929;47.910;20.390;2022-07-22T00:35:07;99334.59;;;19.34
62845;BMP280;48929;47.910;20.390;2022-07-22T00:37:36;99335.31;;;19.35
62845;BMP280;48929;47.910;20.390;2022-07-22T00:40:05;99327.53;;;19.26
62845;BMP280;48929;47.910;20.390;2022-07-22T00:42:34;99335.38;;;19.15
62845;BMP280;48929;47.910;20.390;2022-07-22T00:45:05;99330.75;;;19.10
62845;BMP280;48929;47.910;20.390;2022-07-22T00:47:34;99339.16;;;19.03
62845;BMP280;48929;47.910;20.390;2022-07-22T00:50:06;99333.09;;;19.02
62845;BMP280;48929;47.910;20.390;2022-07-22T00:52:35;99330.75;;;19.04
62845;BMP280;48929;47.910;20.390;2022-07-22T00:55:05;99330.22;;;19.00
62845;BMP280;48929;47.910;20.390;2022-07-22T00:57:34;99329.22;;;18.98
62845;BMP280;48929;47.910;20.390;2022-07-22T01:00:05;99331.34;;;18.94
62845;BMP280;48929;47.910;20.390;2022-07-22T01:02:34;99326.97;;;18.91
62845;BMP280;48929;47.910;20.390;2022-07-22T01:05:06;99330.81;;;18.90
62845;BMP280;48929;47.910;20.390;2022-07-22T01:07:36;99332.91;;;18.80
62845;BMP280;48929;47.910;20.390;2022-07-22T01:10:06;99331.38;;;18.73
62845;BMP280;48929;47.910;20.390;2022-07-22T01:12:35;99335.63;;;18.65
62845;BMP280;48929;47.910;20.390;2022-07-22T01:15:05;99329.81;;;18.61
62845;BMP280;48929;47.910;20.390;2022-07-22T01:17:34;99328.81;;;18.59
62845;BMP280;48929;47.910;20.390;2022-07-22T01:20:07;99333.91;;;18.62
62845;BMP280;48929;47.910;20.390;2022-07-22T01:22:36;99328.59;;;18.62
62845;BMP280;48929;47.910;20.390;2022-07-22T01:25:05;99331.94;;;18.57
62845;BMP280;48929;47.910;20.390;2022-07-22T01:27:34;99324.38;;;18.50
62845;BMP280;48929;47.910;20.390;2022-07-22T01:30:04;99334.22;;;18.44
62845;BMP280;48929;47.910;20.390;2022-07-22T01:32:33;99330.75;;;18.38
62845;BMP280;48929;47.910;20.390;2022-07-22T01:35:03;99327.56;;;18.34
62845;BMP280;48929;47.910;20.390;2022-07-22T01:37:34;99328.22;;;18.29
62845;BMP280;48929;47.910;20.390;2022-07-22T01:40:04;99333.53;;;18.29
62845;BMP280;48929;47.910;20.390;2022-07-22T01:42:33;99325.84;;;18.31
62845;BMP280;48929;47.910;20.390;2022-07-22T01:45:02;99321.97;;;18.32
62845;BMP280;48929;47.910;20.390;2022-07-22T01:47:31;99323.44;;;18.33
62845;BMP280;48929;47.910;20.390;2022-07-22T01:50:00;99319.03;;;18.25
62845;BMP280;48929;47.910;20.390;2022-07-22T01:52:29;99320.59;;;18.17
62845;BMP280;48929;47.910;20.390;2022-07-22T01:54:59;99322.97;;;18.15
62845;BMP280;48929;47.910;20.390;2022-07-22T01:57:28;99313.81;;;18.16
62845;BMP280;48929;47.910;20.390;2022-07-22T01:59:57;99318.41;;;18.15
62845;BMP280;48929;47.910;20.390;2022-07-22T02:02:26;99324.75;;;18.03
62845;BMP280;48929;47.910;20.390;2022-07-22T02:04:54;99331.63;;;17.95
62845;BMP280;48929;47.910;20.390;2022-07-22T02:07:23;99327.47;;;17.88
62845;BMP280;48929;47.910;20.390;2022-07-22T02:09:53;99327.38;;;17.83
62845;BMP280;48929;47.910;20.390;2022-07-22T02:12:23;99331.84;;;17.77
62845;BMP280;48929;47.910;20.390;2022-07-22T02:14:52;99331.84;;;17.77
62845;BMP280;48929;47.910;20.390;2022-07-22T02:17:21;99327.09;;;17.81
62845;BMP280;48929;47.910;20.390;2022-07-22T02:19:50;99330.75;;;17.83
62845;BMP280;48929;47.910;20.390;2022-07-22T02:22:18;99330.22;;;17.79
62845;BMP280;48929;47.910;20.390;2022-07-22T02:24:48;99332.25;;;17.70
62845;BMP280;48929;47.910;20.390;2022-07-22T02:27:17;99327.84;;;17.67
62845;BMP280;48929;47.910;20.390;2022-07-22T02:29:47;99329.31;;;17.68
62845;BMP280;48929;47.910;20.390;2022-07-22T02:32:16;99327.72;;;17.56
62845;BMP280;48929;47.910;20.390;2022-07-22T02:34:45;99327.13;;;17.52
62845;BMP280;48929;47.910;20.390;2022-07-22T02:37:13;99337.03;;;17.51
62845;BMP280;48929;47.910;20.390;2022-07-22T02:39:43;99335.72;;;17.47
62845;BMP280;48929;47.910;20.390;2022-07-22T02:42:12;99337.38;;;17.44
62845;BMP280;48929;47.910;20.390;2022-07-22T02:44:40;99335.47;;;17.45
62845;BMP280;48929;47.910;20.390;2022-07-22T02:47:10;99335.91;;;17.43
62845;BMP280;48929;47.910;20.390;2022-07-22T02:49:40;99338.31;;;17.41
62845;BMP280;48929;47.910;20.390;2022-07-22T02:52:08;99335.56;;;17.36
62845;BMP280;48929;47.910;20.390;2022-07-22T02:54:37;99333.38;;;17.34
62845;BMP280;48929;47.910;20.390;2022-07-22T02:57:06;99331.88;;;17.33
62845;BMP280;48929;47.910;20.390;2022-07-22T02:59:35;99338.56;;;17.29
62845;BMP280;48929;47.910;20.390;2022-07-22T03:02:04;99343.41;;;17.30
62845;BMP280;48929;47.910;20.390;2022-07-22T03:04:34;99338.84;;;17.31
62845;BMP280;48929;47.910;20.390;2022-07-22T03:07:03;99340.28;;;17.32
62845;BMP280;48929;47.910;20.390;2022-07-22T03:09:31;99334.09;;;17.35
62845;BMP280;48929;47.910;20.390;2022-07-22T03:12:00;99333.38;;;17.34
62845;BMP280;48929;47.910;20.390;2022-07-22T03:14:29;99336.19;;;17.31
62845;BMP280;48929;47.910;20.390;2022-07-22T03:16:57;99339.19;;;17.24
62845;BMP280;48929;47.910;20.390;2022-07-22T03:19:26;99346.41;;;17.23
62845;BMP280;48929;47.910;20.390;2022-07-22T03:21:56;99347.59;;;17.22
62845;BMP280;48929;47.910;20.390;2022-07-22T03:24:25;99356.56;;;17.25
62845;BMP280;48929;47.910;20.390;2022-07-22T03:26:53;99360.19;;;17.27
62845;BMP280;48929;47.910;20.390;2022-07-22T03:29:22;99355.06;;;17.24
62845;BMP280;48929;47.910;20.390;2022-07-22T03:31:52;99353.47;;;17.26
62845;BMP280;48929;47.910;20.390;2022-07-22T03:34:20;99360.94;;;17.28
62845;BMP280;48929;47.910;20.390;2022-07-22T03:36:49;99356.56;;;17.25
62845;BMP280;48929;47.910;20.390;2022-07-22T03:39:20;99356.75;;;17.21
62845;BMP280;48929;47.910;20.390;2022-07-22T03:41:48;99356.75;;;17.21
62845;BMP280;48929;47.910;20.390;2022-07-22T03:44:17;99361.84;;;17.25
62845;BMP280;48929;47.910;20.390;2022-07-22T03:46:45;99360.19;;;17.27
62845;BMP280;48929;47.910;20.390;2022-07-22T03:49:14;99374.91;;;17.28
62845;BMP280;48929;47.910;20.390;2022-07-22T03:51:43;99372.25;;;17.28
62845;BMP280;48929;47.910;20.390;2022-07-22T03:54:12;99368.97;;;17.33
62845;BMP280;48929;47.910;20.390;2022-07-22T03:56:42;99371.50;;;17.28
62845;BMP280;48929;47.910;20.390;2022-07-22T03:59:11;99369.88;;;17.30
62845;BMP280;48929;47.910;20.390;2022-07-22T04:01:43;99372.47;;;17.39
62845;BMP280;48929;47.910;20.390;2022-07-22T04:04:11;99374.28;;;17.48
62845;BMP280;48929;47.910;20.390;2022-07-22T04:06:40;99375.09;;;17.54
62845;BMP280;48929;47.910;20.390;2022-07-22T04:09:09;99373.53;;;17.62
62845;BMP280;48929;47.910;20.390;2022-07-22T04:11:38;99377.28;;;17.70
62845;BMP280;48929;47.910;20.390;2022-07-22T04:14:08;99377.84;;;17.74
62845;BMP280;48929;47.910;20.390;2022-07-22T04:16:37;99373.81;;;17.78
62845;BMP280;48929;47.910;20.390;2022-07-22T04:19:06;99371.72;;;17.82
62845;BMP280;48929;47.910;20.390;2022-07-22T04:21:35;99376.16;;;17.91
62845;BMP280;48929;47.910;20.390;2022-07-22T04:24:04;99377.50;;;18.01
62845;BMP280;48929;47.910;20.390;2022-07-22T04:26:33;99377.16;;;18.08
62845;BMP280;48929;47.910;20.390;2022-07-22T04:29:03;99381.13;;;18.18
62845;BMP280;48929;47.910;20.390;2022-07-22T04:31:33;99391.88;;;18.29
62845;BMP280;48929;47.910;20.390;2022-07-22T04:34:02;99384.81;;;18.41
62845;BMP280;48929;47.910;20.390;2022-07-22T04:36:32;99389.03;;;18.53
62845;BMP280;48929;47.910;20.390;2022-07-22T04:39:01;99381.41;;;18.60
62845;BMP280;48929;47.910;20.390;2022-07-22T04:41:29;99383.47;;;18.71
62845;BMP280;48929;47.910;20.390;2022-07-22T04:43:58;99383.78;;;18.78
62845;BMP280;48929;47.910;20.390;2022-07-22T04:46:27;99381.00;;;18.88
62845;BMP280;48929;47.910;20.390;2022-07-22T04:48:57;99384.97;;;18.98
62845;BMP280;48929;47.910;20.390;2022-07-22T04:51:26;99382.16;;;19.07
62845;BMP280;48929;47.910;20.390;2022-07-22T04:54:00;99376.97;;;19.18
62845;BMP280;48929;47.910;20.390;2022-07-22T04:56:34;99374.16;;;19.32
62845;BMP280;48929;47.910;20.390;2022-07-22T04:59:07;99380.56;;;19.46
62845;BMP280;48929;47.910;20.390;2022-07-22T05:01:42;99373.66;;;19.59
62845;BMP280;48929;47.910;20.390;2022-07-22T05:04:17;99382.72;;;19.73
62845;BMP280;48929;47.910;20.390;2022-07-22T05:06:48;99383.28;;;19.88
62845;BMP280;48929;47.910;20.390;2022-07-22T05:09:19;99386.25;;;20.01
62845;BMP280;48929;47.910;20.390;2022-07-22T05:11:53;99388.78;;;20.16
62845;BMP280;48929;47.910;20.390;2022-07-22T05:14:23;99383.25;;;20.25
62845;BMP280;48929;47.910;20.390;2022-07-22T05:16:59;99390.28;;;20.33
62845;BMP280;48929;47.910;20.390;2022-07-22T05:19:43;99393.47;;;20.43
62845;BMP280;48929;47.910;20.390;2022-07-22T05:22:15;99390.84;;;20.54
62845;BMP280;48929;47.910;20.390;2022-07-22T05:24:46;99387.75;;;20.66
62845;BMP280;48929;47.910;20.390;2022-07-22T05:27:17;99388.97;;;20.76
62845;BMP280;48929;47.910;20.390;2022-07-22T05:29:52;99390.47;;;20.89
62845;BMP280;48929;47.910;20.390;2022-07-22T05:32:22;99398.22;;;20.98
62845;BMP280;48929;47.910;20.390;2022-07-22T05:34:56;99399.22;;;21.06
62845;BMP280;48929;47.910;20.390;2022-07-22T05:37:31;99392.69;;;21.18
62845;BMP280;48929;47.910;20.390;2022-07-22T05:40:06;99393.16;;;21.33
62845;BMP280;48929;47.910;20.390;2022-07-22T05:42:43;99396.56;;;21.44
62845;BMP280;48929;47.910;20.390;2022-07-22T05:45:15;99397.03;;;21.59
62845;BMP280;48929;47.910;20.390;2022-07-22T05:47:48;99404.25;;;21.75
62845;BMP280;48929;47.910;20.390;2022-07-22T05:50:24;99390.19;;;21.92
62845;BMP280;48929;47.910;20.390;2022-07-22T05:52:57;99389.91;;;22.06
62845;BMP280;48929;47.910;20.390;2022-07-22T05:55:28;99391.28;;;22.24
62845;BMP280;48929;47.910;20.390;2022-07-22T05:58:01;99388.56;;;22.40
62845;BMP280;48929;47.910;20.390;2022-07-22T06:00:35;99389.19;;;22.57
62845;BMP280;48929;47.910;20.390;2022-07-22T06:03:08;99390.78;;;22.77
62845;BMP280;48929;47.910;20.390;2022-07-22T06:05:49;99383.53;;;23.02
62845;BMP280;48929;47.910;20.390;2022-07-22T06:08:21;99383.13;;;23.22
62845;BMP280;48929;47.910;20.390;2022-07-22T06:10:53;99383.44;;;23.42
62845;BMP280;48929;47.910;20.390;2022-07-22T06:13:21;99387.38;;;23.60
62845;BMP280;48929;47.910;20.390;2022-07-22T06:15:50;99388.03;;;23.90
62845;BMP280;48929;47.910;20.390;2022-07-22T06:18:19;99387.81;;;24.06
62845;BMP280;48929;47.910;20.390;2022-07-22T06:20:50;99380.31;;;24.24
62845;BMP280;48929;47.910;20.390;2022-07-22T06:23:23;99387.41;;;24.40
62845;BMP280;48929;47.910;20.390;2022-07-22T06:28:34;99380.28;;;24.61
62845;BMP280;48929;47.910;20.390;2022-07-22T06:34:35;99385.63;;;24.92
62845;BMP280;48929;47.910;20.390;2022-07-22T06:37:08;99387.31;;;25.08
62845;BMP280;48929;47.910;20.390;2022-07-22T06:39:49;99396.81;;;25.22
62845;BMP280;48929;47.910;20.390;2022-07-22T06:42:55;99382.31;;;25.31
62845;BMP280;48929;47.910;20.390;2022-07-22T06:45:53;99386.81;;;25.49
62845;BMP280;48929;47.910;20.390;2022-07-22T06:48:27;99388.59;;;25.60
62845;BMP280;48929;47.910;20.390;2022-07-22T06:50:59;99389.19;;;25.66
62845;BMP280;48929;47.910;20.390;2022-07-22T06:53:30;99394.16;;;25.75
62845;BMP280;48929;47.910;20.390;2022-07-22T06:55:58;99388.38;;;25.84
62845;BMP280;48929;47.910;20.390;2022-07-22T06:58:32;99390.00;;;25.87
62845;BMP280;48929;47.910;20.390;2022-07-22T07:01:01;99389.69;;;26.03
62845;BMP280;48929;47.910;20.390;2022-07-22T07:03:30;99388.00;;;26.13
62845;BMP280;48929;47.910;20.390;2022-07-22T07:06:03;99381.25;;;26.20
62845;BMP280;48929;47.910;20.390;2022-07-22T07:08:34;99381.44;;;26.22
62845;BMP280;48929;47.910;20.390;2022-07-22T07:11:07;99390.31;;;26.30
62845;BMP280;48929;47.910;20.390;2022-07-22T07:13:35;99384.94;;;26.30
62845;BMP280;48929;47.910;20.390;2022-07-22T07:16:04;99380.34;;;26.38
62845;BMP280;48929;47.910;20.390;2022-07-22T07:18:33;99382.56;;;26.47
62845;BMP280;48929;47.910;20.390;2022-07-22T07:21:03;99386.97;;;26.57
62845;BMP280;48929;47.910;20.390;2022-07-22T07:23:36;99384.81;;;26.76
62845;BMP280;48929;47.910;20.390;2022-07-22T07:26:07;99374.69;;;26.90
62845;BMP280;48929;47.910;20.390;2022-07-22T07:28:36;99372.97;;;27.00
62845;BMP280;48929;47.910;20.390;2022-07-22T07:31:16;99381.50;;;26.91
62845;BMP280;48929;47.910;20.390;2022-07-22T07:34:02;99379.03;;;26.93
62845;BMP280;48929;47.910;20.390;2022-07-22T07:40:40;99376.44;;;27.08
62845;BMP280;48929;47.910;20.390;2022-07-22T07:43:30;99383.84;;;27.23
62845;BMP280;48929;47.910;20.390;2022-07-22T07:46:09;99376.03;;;27.32
62845;BMP280;48929;47.910;20.390;2022-07-22T07:48:57;99380.09;;;27.54
62845;BMP280;48929;47.910;20.390;2022-07-22T07:51:32;99383.72;;;27.56
62845;BMP280;48929;47.910;20.390;2022-07-22T07:54:32;99379.25;;;27.66
62845;BMP280;48929;47.910;20.390;2022-07-22T07:57:31;99369.44;;;27.91
62845;BMP280;48929;47.910;20.390;2022-07-22T08:00:10;99368.97;;;28.15
62845;BMP280;48929;47.910;20.390;2022-07-22T08:02:51;99369.19;;;28.40
62845;BMP280;48929;47.910;20.390;2022-07-22T08:05:31;99365.94;;;28.64
62845;BMP280;48929;47.910;20.390;2022-07-22T08:08:00;99369.69;;;28.91
62845;BMP280;48929;47.910;20.390;2022-07-22T08:10:36;99367.66;;;29.07
62845;BMP280;48929;47.910;20.390;2022-07-22T08:13:31;99355.59;;;29.23
62845;BMP280;48929;47.910;20.390;2022-07-22T08:17:00;99359.31;;;29.35
62845;BMP280;48929;47.910;20.390;2022-07-22T08:20:45;99355.63;;;29.55
62845;BMP280;48929;47.910;20.390;2022-07-22T08:23:14;99353.06;;;29.57
62845;BMP280;48929;47.910;20.390;2022-07-22T08:25:44;99350.38;;;29.57
62845;BMP280;48929;47.910;20.390;2022-07-22T08:32:03;99352.66;;;29.68
62845;BMP280;48929;47.910;20.390;2022-07-22T08:34:32;99351.94;;;29.67
62845;BMP280;48929;47.910;20.390;2022-07-22T08:37:04;99350.63;;;29.76
62845;BMP280;48929;47.910;20.390;2022-07-22T08:39:36;99353.69;;;29.72
62845;BMP280;48929;47.910;20.390;2022-07-22T08:46:05;99343.97;;;29.77
62845;BMP280;48929;47.910;20.390;2022-07-22T08:57:18;99343.19;;;29.84
62845;BMP280;48929;47.910;20.390;2022-07-22T08:59:52;99347.47;;;29.94
62845;BMP280;48929;47.910;20.390;2022-07-22T09:02:22;99349.59;;;29.96
62845;BMP280;48929;47.910;20.390;2022-07-22T09:09:13;99353.66;;;30.29
62845;BMP280;48929;47.910;20.390;2022-07-22T09:12:07;99351.44;;;30.35
62845;BMP280;48929;47.910;20.390;2022-07-22T09:30:30;99348.41;;;31.33
62845;BMP280;48929;47.910;20.390;2022-07-22T09:36:30;99346.53;;;31.26
62845;BMP280;48929;47.910;20.390;2022-07-22T09:38:59;99351.81;;;31.34
62845;BMP280;48929;47.910;20.390;2022-07-22T09:41:28;99349.00;;;31.41
62845;BMP280;48929;47.910;20.390;2022-07-22T09:43:57;99347.78;;;31.52
62845;BMP280;48929;47.910;20.390;2022-07-22T09:46:35;99343.28;;;31.64
62845;BMP280;48929;47.910;20.390;2022-07-22T09:49:04;99341.75;;;31.70
62845;BMP280;48929;47.910;20.390;2022-07-22T09:51:35;99342.81;;;31.84
62845;BMP280;48929;47.910;20.390;2022-07-22T09:54:04;99342.97;;;31.86
62845;BMP280;48929;47.910;20.390;2022-07-22T09:56:37;99333.84;;;31.91
62845;BMP280;48929;47.910;20.390;2022-07-22T09:59:27;99322.69;;;31.78
62845;BMP280;48929;47.910;20.390;2022-07-22T10:02:16;99332.16;;;32.05
62845;BMP280;48929;47.910;20.390;2022-07-22T10:05:08;99317.78;;;32.13
62845;BMP280;48929;47.910;20.390;2022-07-22T10:08:07;99318.97;;;32.29
62845;BMP280;48929;47.910;20.390;2022-07-22T10:10:38;99322.50;;;32.22
62845;BMP280;48929;47.910;20.390;2022-07-22T10:13:17;99320.66;;;32.34
62845;BMP280;48929;47.910;20.390;2022-07-22T10:15:50;99316.25;;;32.48
62845;BMP280;48929;47.910;20.390;2022-07-22T10:18:28;99320.09;;;32.64
62845;BMP280;48929;47.910;20.390;2022-07-22T10:23:21;99319.97;;;32.62
62845;BMP280;48929;47.910;20.390;2022-07-22T10:25:16;99310.09;;;32.66
62845;BMP280;48929;47.910;20.390;2022-07-22T10:28:55;99309.81;;;32.62
62845;BMP280;48929;47.910;20.390;2022-07-22T10:31:51;99306.22;;;32.69
62845;BMP280;48929;47.910;20.390;2022-07-22T10:38:29;99306.44;;;33.11
62845;BMP280;48929;47.910;20.390;2022-07-22T10:41:32;99301.38;;;33.57
62845;BMP280;48929;47.910;20.390;2022-07-22T10:44:13;99297.50;;;33.91
62845;BMP280;48929;47.910;20.390;2022-07-22T10:46:50;99295.50;;;34.12
62845;BMP280;48929;47.910;20.390;2022-07-22T10:49:20;99285.63;;;34.07
62845;BMP280;48929;47.910;20.390;2022-07-22T10:52:14;99283.09;;;34.21
62845;BMP280;48929;47.910;20.390;2022-07-22T10:55:17;99287.22;;;34.43
62845;BMP280;48929;47.910;20.390;2022-07-22T10:57:53;99289.63;;;34.60
62845;BMP280;48929;47.910;20.390;2022-07-22T11:00:22;99285.88;;;34.65
62845;BMP280;48929;47.910;20.390;2022-07-22T11:02:51;99289.19;;;34.63
62845;BMP280;48929;47.910;20.390;2022-07-22T11:05:25;99291.06;;;34.72
62845;BMP280;48929;47.910;20.390;2022-07-22T11:07:53;99286.69;;;34.79
62845;BMP280;48929;47.910;20.390;2022-07-22T11:10:22;99278.88;;;34.73
62845;BMP280;48929;47.910;20.390;2022-07-22T11:13:31;99281.59;;;34.62
62845;BMP280;48929;47.910;20.390;2022-07-22T11:16:14;99275.19;;;34.69
62845;BMP280;48929;47.910;20.390;2022-07-22T11:18:48;99269.31;;;34.72
62845;BMP280;48929;47.910;20.390;2022-07-22T11:21:19;99265.53;;;34.78
62845;BMP280;48929;47.910;20.390;2022-07-22T11:23:51;99262.72;;;34.76
62845;BMP280;48929;47.910;20.390;2022-07-22T11:26:25;99264.91;;;34.79
62845;BMP280;48929;47.910;20.390;2022-07-22T11:28:56;99262.47;;;34.83
62845;BMP280;48929;47.910;20.390;2022-07-22T11:31:26;99262.19;;;34.79
62845;BMP280;48929;47.910;20.390;2022-07-22T11:34:07;99261.06;;;35.05
62845;BMP280;48929;47.910;20.390;2022-07-22T11:36:38;99260.13;;;35.24
62845;BMP280;48929;47.910;20.390;2022-07-22T11:39:09;99258.09;;;35.24
62845;BMP280;48929;47.910;20.390;2022-07-22T11:41:39;99250.16;;;35.28
62845;BMP280;48929;47.910;20.390;2022-07-22T11:44:09;99257.25;;;35.33
62845;BMP280;48929;47.910;20.390;2022-07-22T11:46:40;99255.38;;;35.24
62845;BMP280;48929;47.910;20.390;2022-07-22T11:49:13;99247.53;;;35.19
62845;BMP280;48929;47.910;20.390;2022-07-22T11:51:42;99241.41;;;35.18
62845;BMP280;48929;47.910;20.390;2022-07-22T11:54:13;99246.84;;;35.18
62845;BMP280;48929;47.910;20.390;2022-07-22T11:56:42;99237.81;;;35.27
62845;BMP280;48929;47.910;20.390;2022-07-22T11:59:14;99240.19;;;35.33
62845;BMP280;48929;47.910;20.390;2022-07-22T12:01:48;99237.81;;;35.27
62845;BMP280;48929;47.910;20.390;2022-07-22T12:04:20;99240.91;;;35.22
62845;BMP280;48929;47.910;20.390;2022-07-22T12:06:50;99234.28;;;35.36
62845;BMP280;48929;47.910;20.390;2022-07-22T12:09:22;99233.88;;;35.42
62845;BMP280;48929;47.910;20.390;2022-07-22T12:11:53;99231.84;;;35.54
62845;BMP280;48929;47.910;20.390;2022-07-22T12:14:25;99225.69;;;35.53
62845;BMP280;48929;47.910;20.390;2022-07-22T12:16:57;99226.28;;;35.52
62845;BMP280;48929;47.910;20.390;2022-07-22T12:19:27;99231.63;;;35.50
62845;BMP280;48929;47.910;20.390;2022-07-22T12:21:59;99224.72;;;35.60
62845;BMP280;48929;47.910;20.390;2022-07-22T12:24:30;99224.09;;;35.73
62845;BMP280;48929;47.910;20.390;2022-07-22T12:27:00;99220.59;;;35.59
62845;BMP280;48929;47.910;20.390;2022-07-22T12:29:41;99212.47;;;35.73
62845;BMP280;48929;47.910;20.390;2022-07-22T12:32:15;99209.75;;;35.73
62845;BMP280;48929;47.910;20.390;2022-07-22T12:34:46;99207.34;;;35.90
62845;BMP280;48929;47.910;20.390;2022-07-22T12:37:17;99191.13;;;35.81
62845;BMP280;48929;47.910;20.390;2022-07-22T12:39:53;99194.00;;;35.71
62845;BMP280;48929;47.910;20.390;2022-07-22T12:42:26;99190.09;;;35.63
62845;BMP280;48929;47.910;20.390;2022-07-22T12:45:03;99194.13;;;35.73
62845;BMP280;48929;47.910;20.390;2022-07-22T12:47:40;99184.47;;;35.84
62845;BMP280;48929;47.910;20.390;2022-07-22T12:50:16;99189.97;;;35.97
62845;BMP280;48929;47.910;20.390;2022-07-22T12:52:45;99184.38;;;36.07
62845;BMP280;48929;47.910;20.390;2022-07-22T12:55:35;99177.94;;;36.27
62845;BMP280;48929;47.910;20.390;2022-07-22T12:58:05;99186.94;;;36.43
62845;BMP280;48929;47.910;20.390;2022-07-22T13:00:39;99184.41;;;36.47
62845;BMP280;48929;47.910;20.390;2022-07-22T13:03:13;99177.25;;;36.54
62845;BMP280;48929;47.910;20.390;2022-07-22T13:05:53;99170.75;;;36.34
62845;BMP280;48929;47.910;20.390;2022-07-22T13:08:34;99173.41;;;36.32
62845;BMP280;48929;47.910;20.390;2022-07-22T13:11:35;99166.84;;;36.50
62845;BMP280;48929;47.910;20.390;2022-07-22T13:14:21;99166.84;;;36.50
62845;BMP280;48929;47.910;20.390;2022-07-22T13:17:11;99164.84;;;36.64
62845;BMP280;48929;47.910;20.390;2022-07-22T13:19:53;99162.03;;;36.76
62845;BMP280;48929;47.910;20.390;2022-07-22T13:22:32;99157.72;;;36.86
62845;BMP280;48929;47.910;20.390;2022-07-22T13:25:17;99152.78;;;36.83
62845;BMP280;48929;47.910;20.390;2022-07-22T13:28:21;99163.63;;;36.94
62845;BMP280;48929;47.910;20.390;2022-07-22T15:06:17;99109.31;;;39.59
62845;BMP280;48929;47.910;20.390;2022-07-22T15:08:51;99102.19;;;39.52
62845;BMP280;48929;47.910;20.390;2022-07-22T15:11:56;99099.41;;;39.89
62845;BMP280;48929;47.910;20.390;2022-07-22T15:15:46;99110.34;;;39.87
62845;BMP280;48929;47.910;20.390;2022-07-22T15:18:36;99103.38;;;40.03
62845;BMP280;48929;47.910;20.390;2022-07-22T15:25:47;99101.69;;;39.94
62845;BMP280;48929;47.910;20.390;2022-07-22T15:30:28;99102.72;;;39.66
62845;BMP280;48929;47.910;20.390;2022-07-22T16:06:20;99081.81;;;36.15
62845;BMP280;48929;47.910;20.390;2022-07-22T16:13:15;99084.06;;;35.80
62845;BMP280;48929;47.910;20.390;2022-07-22T16:19:28;99085.59;;;35.58
62845;BMP280;48929;47.910;20.390;2022-07-22T16:43:43;99077.34;;;34.83
62845;BMP280;48929;47.910;20.390;2022-07-22T16:48:09;99083.03;;;34.64
62845;BMP280;48929;47.910;20.390;2022-07-22T16:59:57;99072.50;;;34.24
62845;BMP280;48929;47.910;20.390;2022-07-22T17:03:04;99069.09;;;34.12
62845;BMP280;48929;47.910;20.390;2022-07-22T17:13:09;99068.50;;;33.81
62845;BMP280;48929;47.910;20.390;2022-07-22T17:16:29;99065.19;;;33.71
62845;BMP280;48929;47.910;20.390;2022-07-22T17:22:29;99063.28;;;33.62
62845;BMP280;48929;47.910;20.390;2022-07-22T17:25:29;99069.34;;;33.51
62845;BMP280;48929;47.910;20.390;2022-07-22T17:28:11;99076.19;;;33.40
62845;BMP280;48929;47.910;20.390;2022-07-22T17:30:59;99093.38;;;33.33
62845;BMP280;48929;47.910;20.390;2022-07-22T17:33:50;99093.28;;;33.22
62845;BMP280;48929;47.910;20.390;2022-07-22T17:36:23;99100.16;;;33.23
62845;BMP280;48929;47.910;20.390;2022-07-22T17:38:54;99101.13;;;33.27
62845;BMP280;48929;47.910;20.390;2022-07-22T17:41:48;99106.34;;;33.35
62845;BMP280;48929;47.910;20.390;2022-07-22T17:44:31;99104.69;;;33.30
62845;BMP280;48929;47.910;20.390;2022-07-22T17:47:21;99115.63;;;33.20
62845;BMP280;48929;47.910;20.390;2022-07-22T17:49:53;99119.25;;;33.13
62845;BMP280;48929;47.910;20.390;2022-07-22T17:52:24;99117.44;;;33.06
62845;BMP280;48929;47.910;20.390;2022-07-22T17:54:55;99126.31;;;32.97
62845;BMP280;48929;47.910;20.390;2022-07-22T17:57:23;99121.56;;;32.77
62845;BMP280;48929;47.910;20.390;2022-07-22T17:59:53;99125.59;;;32.66
62845;BMP280;48929;47.910;20.390;2022-07-22T18:02:22;99126.56;;;32.71
62845;BMP280;48929;47.910;20.390;2022-07-22T18:04:50;99124.84;;;32.75
62845;BMP280;48929;47.910;20.390;2022-07-22T18:07:20;99128.97;;;33.07
62845;BMP280;48929;47.910;20.390;2022-07-22T18:09:49;99124.94;;;32.87
62845;BMP280;48929;47.910;20.390;2022-07-22T18:12:18;99127.81;;;32.79
62845;BMP280;48929;47.910;20.390;2022-07-22T18:14:47;99133.00;;;32.66
62845;BMP280;48929;47.910;20.390;2022-07-22T18:17:16;99134.91;;;32.54
62845;BMP280;48929;47.910;20.390;2022-07-22T18:19:47;99131.91;;;32.50
62845;BMP280;48929;47.910;20.390;2022-07-22T18:22:16;99131.41;;;32.42
62845;BMP280;48929;47.910;20.390;2022-07-22T18:24:46;99137.69;;;32.35
62845;BMP280;48929;47.910;20.390;2022-07-22T18:27:15;99144.09;;;32.30
62845;BMP280;48929;47.910;20.390;2022-07-22T18:29:48;99141.13;;;32.26
62845;BMP280;48929;47.910;20.390;2022-07-22T18:32:17;99159.38;;;32.16
62845;BMP280;48929;47.910;20.390;2022-07-22T18:34:45;99165.81;;;32.10
62845;BMP280;48929;47.910;20.390;2022-07-22T18:37:14;99167.81;;;32.00
62845;BMP280;48929;47.910;20.390;2022-07-22T18:39:43;99176.66;;;31.82